Time;durP1;ratioP1;P1;durP2;ratioP2;P2;SDS_P1;SDS_P2;PMS_P1;PMS_P2;Temp;Humidity;BMP_temperature;BMP_pressure;BME280_temperature;BME280_humidity;BME280_pressure;Samples;Min_cycle;Max_cycle;Signal;HPM_P1;HPM_P2
2022/07/28 00:00:49;;;;;;;2.33;1.50;;;;;;;;;;4751999;30;20052;-57
2022/07/28 00:03:17;;;;;;;4.32;1.42;;;;;;;;;;4751772;30;20106;-49
2022/07/28 00:05:46;;;;;;;5.43;1.20;;;;;;;;;;4751738;30;20052;-57
2022/07/28 00:08:16;;;;;;;6.93;2.25;;;;;;;;;;4751437;30;20474;-47
2022/07/28 00:10:43;;;;;;;2.38;1.48;;;;;;;;;;4751739;30;20524;-56
2022/07/28 00:13:10;;;;;;;4.30;1.75;;;;;;;;;;4751729;30;20481;-56
2022/07/28 00:15:37;;;;;;;5.22;1.20;;;;;;;;;;4751755;30;20442;-54
2022/07/28 00:18:05;;;;;;;2.60;1.48;;;;;;;;;;4751889;30;20050;-53
2022/07/28 00:20:32;;;;;;;10.50;2.30;;;;;;;;;;4751537;30;20051;-56
2022/07/28 00:22:59;;;;;;;3.78;1.42;;;;;;;;;;4751647;30;20044;-57
2022/07/28 00:25:27;;;;;;;2.85;1.23;;;;;;;;;;4764992;30;20044;-55
2022/07/28 00:27:54;;;;;;;9.48;2.10;;;;;;;;;;4751356;30;20059;-55
2022/07/28 00:30:21;;;;;;;5.68;2.00;;;;;;;;;;4751365;30;20497;-56
2022/07/28 00:32:49;;;;;;;4.47;1.48;;;;;;;;;;4751646;30;20048;-56
2022/07/28 00:35:16;;;;;;;5.20;2.08;;;;;;;;;;4751329;30;20055;-48
2022/07/28 00:37:56;;;;;;;6.90;2.00;;;;;;;;;;4751554;30;20074;-49
2022/07/28 00:41:09;;;;;;;1.98;1.23;;;;;;;;;;4751359;30;20045;-50
2022/07/28 00:43:11;;;;;;;3.83;1.85;;;;;;;;;;4751202;30;20528;-48
2022/07/28 00:45:38;;;;;;;7.82;1.83;;;;;;;;;;4751554;30;20048;-55
2022/07/28 00:48:05;;;;;;;3.58;1.70;;;;;;;;;;4751642;30;20044;-56
2022/07/28 00:50:32;;;;;;;3.22;1.40;;;;;;;;;;4751165;30;20052;-51
2022/07/28 00:53:02;;;;;;;4.82;1.40;;;;;;;;;;4751269;30;20052;-58
2022/07/28 00:55:30;;;;;;;4.68;1.52;;;;;;;;;;4751256;30;20390;-53
2022/07/28 00:58:18;;;;;;;4.65;1.10;;;;;;;;;;4751036;30;20411;-54
2022/07/28 01:00:45;;;;;;;2.95;1.20;;;;;;;;;;4751340;30;20048;-58
2022/07/28 01:03:13;;;;;;;4.00;1.80;;;;;;;;;;4751395;30;20124;-50
2022/07/28 01:05:46;;;;;;;1.55;1.10;;;;;;;;;;4754696;30;20048;-56
2022/07/28 01:08:27;;;;;;;4.60;1.48;;;;;;;;;;4754780;30;20040;-52
2022/07/28 01:11:03;;;;;;;6.57;2.20;;;;;;;;;;4754903;30;20397;-52
2022/07/28 01:13:41;;;;;;;8.90;1.40;;;;;;;;;;4754513;30;20083;-50
2022/07/28 01:16:10;;;;;;;4.68;1.20;;;;;;;;;;4754543;30;20580;-52
2022/07/28 01:18:53;;;;;;;4.03;1.15;;;;;;;;;;4754507;30;20046;-54
2022/07/28 01:21:25;;;;;;;2.95;1.30;;;;;;;;;;4754588;30;20132;-52
2022/07/28 01:24:11;;;;;;;2.05;1.10;;;;;;;;;;4754659;30;20063;-52
2022/07/28 01:27:06;;;;;;;6.88;2.05;;;;;;;;;;4754766;30;20513;-56
2022/07/28 01:30:03;;;;;;;3.20;1.27;;;;;;;;;;4754360;30;20052;-48
2022/07/28 01:32:40;;;;;;;5.00;1.40;;;;;;;;;;4754364;30;20110;-52
2022/07/28 01:35:13;;;;;;;4.30;1.52;;;;;;;;;;4754485;30;20056;-53
2022/07/28 01:37:44;;;;;;;3.90;1.25;;;;;;;;;;4754390;30;20055;-51
2022/07/28 01:40:16;;;;;;;2.72;1.42;;;;;;;;;;4754147;30;20052;-54
2022/07/28 01:42:47;;;;;;;5.55;2.17;;;;;;;;;;4754195;30;20063;-51
2022/07/28 01:45:17;;;;;;;3.30;1.27;;;;;;;;;;4754120;30;20067;-57
2022/07/28 01:47:45;;;;;;;4.53;1.25;;;;;;;;;;4754172;30;20048;-52
2022/07/28 01:50:15;;;;;;;3.05;0.90;;;;;;;;;;4754067;30;20068;-51
2022/07/28 01:52:45;;;;;;;3.40;1.42;;;;;;;;;;4754032;30;20063;-50
2022/07/28 01:55:13;;;;;;;2.75;0.93;;;;;;;;;;4754211;30;20076;-51
2022/07/28 01:57:42;;;;;;;3.95;1.92;;;;;;;;;;4753954;30;20473;-49
2022/07/28 02:00:11;;;;;;;6.15;1.50;;;;;;;;;;4754158;30;20049;-52
2022/07/28 02:02:41;;;;;;;5.50;1.52;;;;;;;;;;4754076;30;20164;-51
2022/07/28 02:05:12;;;;;;;3.47;1.30;;;;;;;;;;4752760;30;20052;-51
2022/07/28 02:07:41;;;;;;;2.40;1.20;;;;;;;;;;4753723;30;20040;-51
2022/07/28 02:10:13;;;;;;;2.85;1.05;;;;;;;;;;4753999;30;20397;-48
2022/07/28 02:12:43;;;;;;;2.08;0.90;;;;;;;;;;4753792;30;20055;-50
2022/07/28 02:15:12;;;;;;;2.28;1.00;;;;;;;;;;4752934;30;20060;-47
2022/07/28 02:17:43;;;;;;;1.80;0.90;;;;;;;;;;4753932;30;20079;-55
2022/07/28 02:20:12;;;;;;;7.25;2.33;;;;;;;;;;4753493;30;20417;-49
2022/07/28 02:22:42;;;;;;;5.47;2.05;;;;;;;;;;4753678;30;20066;-48
2022/07/28 02:25:17;;;;;;;4.45;1.60;;;;;;;;;;4753324;30;20110;-46
2022/07/28 02:28:04;;;;;;;4.72;0.98;;;;;;;;;;4753370;30;20413;-56
2022/07/28 02:30:43;;;;;;;1.90;0.90;;;;;;;;;;4753510;30;20048;-58
2022/07/28 02:33:14;;;;;;;2.60;0.98;;;;;;;;;;4753516;30;20059;-50
2022/07/28 02:36:04;;;;;;;3.65;0.98;;;;;;;;;;4753425;30;20143;-54
2022/07/28 02:38:41;;;;;;;3.47;1.13;;;;;;;;;;4753322;30;20040;-52
2022/07/28 02:41:38;;;;;;;2.42;1.27;;;;;;;;;;4753482;30;20094;-53
2022/07/28 02:44:17;;;;;;;1.98;0.95;;;;;;;;;;4752948;30;20063;-55
2022/07/28 02:46:50;;;;;;;3.17;0.80;;;;;;;;;;4753249;30;20052;-53
2022/07/28 02:49:27;;;;;;;3.00;0.90;;;;;;;;;;4753071;30;20056;-55
2022/07/28 02:51:58;;;;;;;2.50;1.00;;;;;;;;;;4753228;30;20044;-54
2022/07/28 02:54:27;;;;;;;7.10;3.60;;;;;;;;;;4753091;30;20044;-53
2022/07/28 02:56:56;;;;;;;3.78;1.08;;;;;;;;;;4752929;30;20506;-53
2022/07/28 02:59:25;;;;;;;3.08;1.20;;;;;;;;;;4752883;30;20052;-56
2022/07/28 03:01:54;;;;;;;3.90;1.25;;;;;;;;;;4753024;30;20047;-56
2022/07/28 03:07:10;;;;;;;2.78;1.30;;;;;;;;;;4752971;30;20383;-53
2022/07/28 03:09:44;;;;;;;2.67;0.70;;;;;;;;;;4752775;30;20056;-54
2022/07/28 03:12:12;;;;;;;1.10;0.88;;;;;;;;;;4752618;30;20048;-56
2022/07/28 03:14:40;;;;;;;2.53;0.70;;;;;;;;;;4752894;30;20064;-57
2022/07/28 03:17:08;;;;;;;1.10;0.63;;;;;;;;;;4752850;30;20059;-53
2022/07/28 03:19:36;;;;;;;3.15;0.95;;;;;;;;;;4752906;30;20052;-53
2022/07/28 03:22:04;;;;;;;3.65;0.90;;;;;;;;;;4752365;30;20044;-54
2022/07/28 03:24:39;;;;;;;3.33;0.70;;;;;;;;;;4752844;30;20051;-50
2022/07/28 03:27:14;;;;;;;3.05;1.73;;;;;;;;;;4750823;30;20556;-55
2022/07/28 03:29:42;;;;;;;3.33;0.88;;;;;;;;;;4752962;30;20052;-54
2022/07/28 03:32:10;;;;;;;3.53;0.80;;;;;;;;;;4751996;30;20047;-55
2022/07/28 03:34:38;;;;;;;2.58;0.98;;;;;;;;;;4752611;30;20048;-55
2022/07/28 03:37:11;;;;;;;3.03;0.80;;;;;;;;;;4752766;30;20067;-56
2022/07/28 03:39:45;;;;;;;3.53;0.98;;;;;;;;;;4752600;30;20052;-51
2022/07/28 03:42:20;;;;;;;1.90;0.80;;;;;;;;;;4752147;30;20140;-54
2022/07/28 03:44:47;;;;;;;4.75;0.70;;;;;;;;;;4752202;30;20118;-52
2022/07/28 03:47:20;;;;;;;17.63;9.10;;;;;;;;;;4752163;30;20079;-53
2022/07/28 03:49:47;;;;;;;8.13;4.03;;;;;;;;;;4751993;30;20067;-54
2022/07/28 03:52:16;;;;;;;3.63;1.05;;;;;;;;;;4752040;30;20115;-48
2022/07/28 03:54:43;;;;;;;2.92;0.73;;;;;;;;;;4752025;30;20059;-51
2022/07/28 03:57:11;;;;;;;2.50;1.10;;;;;;;;;;4751984;30;20040;-54
2022/07/28 03:59:39;;;;;;;2.05;0.70;;;;;;;;;;4752185;30;20055;-50
2022/07/28 04:02:06;;;;;;;4.47;0.95;;;;;;;;;;4752220;30;20036;-57
2022/07/28 04:04:34;;;;;;;1.50;0.63;;;;;;;;;;4751949;30;20048;-57
2022/07/28 04:07:01;;;;;;;2.83;0.77;;;;;;;;;;4751909;30;20424;-53
2022/07/28 04:09:28;;;;;;;2.08;0.65;;;;;;;;;;4751664;30;20062;-52
2022/07/28 04:11:55;;;;;;;3.40;0.77;;;;;;;;;;4751890;30;20044;-56
2022/07/28 04:14:23;;;;;;;3.80;0.60;;;;;;;;;;4751646;30;20056;-55
2022/07/28 04:16:51;;;;;;;2.50;1.00;;;;;;;;;;4751829;30;20053;-53
2022/07/28 04:19:19;;;;;;;7.05;4.65;;;;;;;;;;4751560;30;20078;-51
2022/07/28 04:21:46;;;;;;;15.80;13.70;;;;;;;;;;4751688;30;20052;-55
2022/07/28 04:24:13;;;;;;;10.23;6.80;;;;;;;;;;4751542;30;20079;-57
2022/07/28 04:26:41;;;;;;;6.53;4.22;;;;;;;;;;4751426;30;20128;-52
2022/07/28 04:29:10;;;;;;;5.05;3.30;;;;;;;;;;4751713;30;20052;-56
2022/07/28 04:31:40;;;;;;;36.95;19.15;;;;;;;;;;4751759;30;20048;-51
2022/07/28 04:34:07;;;;;;;5.57;1.85;;;;;;;;;;4751756;30;20040;-53
2022/07/28 04:36:40;;;;;;;1.90;0.90;;;;;;;;;;4751433;30;20454;-54
2022/07/28 04:39:10;;;;;;;2.40;0.90;;;;;;;;;;4751125;30;20060;-56
2022/07/28 04:41:38;;;;;;;3.10;1.50;;;;;;;;;;4751558;30;20044;-55
2022/07/28 04:44:05;;;;;;;1.52;0.98;;;;;;;;;;4751391;30;20048;-53
2022/07/28 04:46:34;;;;;;;1.13;0.60;;;;;;;;;;4751262;30;20051;-52
2022/07/28 04:49:03;;;;;;;3.80;0.93;;;;;;;;;;4751360;30;20044;-50
2022/07/28 04:51:30;;;;;;;4.40;0.93;;;;;;;;;;4751149;30;20055;-51
2022/07/28 04:53:57;;;;;;;0.98;0.60;;;;;;;;;;4751225;30;20056;-55
2022/07/28 04:56:26;;;;;;;1.85;0.73;;;;;;;;;;4751308;30;20052;-49
2022/07/28 04:58:53;;;;;;;1.20;0.60;;;;;;;;;;4751288;30;20048;-54
2022/07/28 05:01:22;;;;;;;1.80;0.77;;;;;;;;;;4751319;30;20048;-52
2022/07/28 05:03:49;;;;;;;3.08;0.60;;;;;;;;;;4751142;30;20052;-55
2022/07/28 05:06:17;;;;;;;0.93;0.60;;;;;;;;;;4751084;30;20508;-57
2022/07/28 05:08:44;;;;;;;2.35;0.70;;;;;;;;;;4751034;30;20064;-51
2022/07/28 05:11:12;;;;;;;2.53;1.40;;;;;;;;;;4751255;30;20509;-53
2022/07/28 05:13:39;;;;;;;2.45;0.98;;;;;;;;;;4751497;30;20109;-54
2022/07/28 05:16:06;;;;;;;0.85;0.55;;;;;;;;;;4751180;30;20053;-49
2022/07/28 05:18:34;;;;;;;5.32;0.70;;;;;;;;;;4751032;30;20048;-56
2022/07/28 05:21:02;;;;;;;1.15;0.60;;;;;;;;;;4751100;30;20051;-52
2022/07/28 05:23:29;;;;;;;3.78;0.77;;;;;;;;;;4751024;30;20584;-54
2022/07/28 05:25:56;;;;;;;4.88;0.88;;;;;;;;;;4751125;30;20070;-57
2022/07/28 05:28:24;;;;;;;1.83;0.60;;;;;;;;;;4750899;30;20127;-50
2022/07/28 05:30:51;;;;;;;1.50;0.60;;;;;;;;;;4751014;30;20114;-55
2022/07/28 05:33:18;;;;;;;2.20;0.75;;;;;;;;;;4750747;30;20048;-52
2022/07/28 05:35:52;;;;;;;1.65;0.60;;;;;;;;;;4750979;30;20497;-56
2022/07/28 05:38:20;;;;;;;0.90;0.60;;;;;;;;;;4751021;30;20052;-56
2022/07/28 05:40:48;;;;;;;1.95;0.63;;;;;;;;;;4750968;30;20079;-52
2022/07/28 05:43:17;;;;;;;1.45;0.50;;;;;;;;;;4751114;30;20052;-52
2022/07/28 05:45:45;;;;;;;2.75;1.15;;;;;;;;;;4750679;30;20048;-50
2022/07/28 05:48:16;;;;;;;1.35;0.50;;;;;;;;;;4750633;30;20054;-53
2022/07/28 05:50:44;;;;;;;3.30;0.80;;;;;;;;;;4752687;30;20509;-52
2022/07/28 05:53:11;;;;;;;0.55;0.40;;;;;;;;;;4753710;30;20531;-48
2022/07/28 05:55:41;;;;;;;1.35;0.60;;;;;;;;;;4754081;30;20044;-51
2022/07/28 05:58:28;;;;;;;6.70;0.68;;;;;;;;;;4754046;30;20048;-50
2022/07/28 06:01:00;;;;;;;0.40;0.40;;;;;;;;;;4754080;30;20044;-52
2022/07/28 06:03:30;;;;;;;2.40;0.70;;;;;;;;;;4754011;30;20052;-53
2022/07/28 06:05:58;;;;;;;1.40;0.40;;;;;;;;;;4753842;30;20063;-53
2022/07/28 06:08:41;;;;;;;1.43;0.40;;;;;;;;;;4753917;30;20063;-52
2022/07/28 06:11:10;;;;;;;0.82;0.43;;;;;;;;;;4754133;30;20649;-50
2022/07/28 06:13:47;;;;;;;1.60;0.52;;;;;;;;;;4753884;30;20056;-47
2022/07/28 06:16:15;;;;;;;1.10;0.50;;;;;;;;;;4753698;30;20052;-57
2022/07/28 06:18:42;;;;;;;1.58;0.50;;;;;;;;;;4753797;30;20064;-51
2022/07/28 06:21:13;;;;;;;1.77;0.50;;;;;;;;;;4753650;30;20413;-50
2022/07/28 06:23:40;;;;;;;3.30;0.80;;;;;;;;;;4753584;30;20139;-56
2022/07/28 06:26:07;;;;;;;2.75;0.40;;;;;;;;;;4753816;30;20080;-50
2022/07/28 06:28:38;;;;;;;0.40;0.40;;;;;;;;;;4753516;30;20058;-47
2022/07/28 06:31:05;;;;;;;1.83;0.43;;;;;;;;;;4753478;30;20056;-52
2022/07/28 06:33:33;;;;;;;0.65;0.40;;;;;;;;;;4753353;30;20048;-51
2022/07/28 06:36:00;;;;;;;2.15;0.38;;;;;;;;;;4753355;30;20078;-57
2022/07/28 06:38:30;;;;;;;0.85;0.52;;;;;;;;;;4753284;30;20052;-48
2022/07/28 06:40:57;;;;;;;0.68;0.30;;;;;;;;;;4753447;30;20117;-48
2022/07/28 06:43:24;;;;;;;10.55;6.50;;;;;;;;;;4753266;30;20051;-57
2022/07/28 06:45:52;;;;;;;2.72;1.02;;;;;;;;;;4753402;30;20098;-57
2022/07/28 06:48:19;;;;;;;1.20;0.50;;;;;;;;;;4752773;30;20040;-50
2022/07/28 06:50:49;;;;;;;2.88;0.50;;;;;;;;;;4753362;30;20122;-53
2022/07/28 06:53:16;;;;;;;0.52;0.32;;;;;;;;;;4753186;30;20147;-49
2022/07/28 06:55:44;;;;;;;1.35;0.50;;;;;;;;;;4753165;30;20048;-51
2022/07/28 06:58:16;;;;;;;3.45;0.70;;;;;;;;;;4752986;30;20063;-48
2022/07/28 07:00:43;;;;;;;2.35;0.60;;;;;;;;;;4752702;30;20052;-49
2022/07/28 07:03:10;;;;;;;2.95;0.65;;;;;;;;;;4753121;30;20040;-48
2022/07/28 07:05:37;;;;;;;0.73;0.50;;;;;;;;;;4753127;30;20539;-50
2022/07/28 07:08:05;;;;;;;2.47;0.90;;;;;;;;;;4751766;30;20417;-49
2022/07/28 07:10:32;;;;;;;0.90;0.65;;;;;;;;;;4752784;30;20052;-52
2022/07/28 07:12:59;;;;;;;0.82;0.65;;;;;;;;;;4752895;30;20045;-48
2022/07/28 07:15:26;;;;;;;2.90;0.50;;;;;;;;;;4751980;30;20131;-53
2022/07/28 07:17:54;;;;;;;1.20;0.73;;;;;;;;;;4752729;30;20136;-56
2022/07/28 07:20:23;;;;;;;1.35;0.40;;;;;;;;;;4752581;30;20417;-49
2022/07/28 07:22:51;;;;;;;1.70;0.80;;;;;;;;;;4752294;30;20048;-49
2022/07/28 07:25:18;;;;;;;2.97;0.75;;;;;;;;;;4752158;30;20058;-50
2022/07/28 07:27:46;;;;;;;1.15;0.57;;;;;;;;;;4752270;30;20466;-48
2022/07/28 07:30:15;;;;;;;4.50;0.60;;;;;;;;;;4752335;30;20052;-50
2022/07/28 07:32:42;;;;;;;1.40;0.60;;;;;;;;;;4752588;30;20110;-47
2022/07/28 07:35:11;;;;;;;1.15;0.50;;;;;;;;;;4752660;30;20106;-51
2022/07/28 07:37:40;;;;;;;0.55;0.47;;;;;;;;;;4752570;30;20053;-48
2022/07/28 07:40:08;;;;;;;3.42;0.77;;;;;;;;;;4752726;30;20052;-47
2022/07/28 07:42:36;;;;;;;3.05;0.50;;;;;;;;;;4751141;30;20055;-49
2022/07/28 07:45:03;;;;;;;2.10;0.50;;;;;;;;;;4752313;30;20498;-52
2022/07/28 07:47:31;;;;;;;0.93;0.68;;;;;;;;;;4751972;30;20052;-52
2022/07/28 07:49:59;;;;;;;0.75;0.50;;;;;;;;;;4750930;30;20539;-51
2022/07/28 07:52:30;;;;;;;2.00;0.60;;;;;;;;;;4752071;30;20052;-49
2022/07/28 07:54:57;;;;;;;0.50;0.50;;;;;;;;;;4752073;30;20055;-49
2022/07/28 07:57:24;;;;;;;1.10;0.50;;;;;;;;;;4751942;30;20106;-50
2022/07/28 07:59:51;;;;;;;0.73;0.60;;;;;;;;;;4752137;30;20059;-50
2022/07/28 08:02:18;;;;;;;0.93;0.50;;;;;;;;;;4751934;30;20448;-49
2022/07/28 08:04:46;;;;;;;1.55;0.60;;;;;;;;;;4751995;30;20426;-49
2022/07/28 08:07:14;;;;;;;24.63;15.93;;;;;;;;;;4752026;30;20101;-49
2022/07/28 08:09:41;;;;;;;3.65;1.75;;;;;;;;;;4751583;30;20059;-50
2022/07/28 08:12:08;;;;;;;1.15;0.57;;;;;;;;;;4751908;30;20052;-51
2022/07/28 08:14:36;;;;;;;1.45;0.77;;;;;;;;;;4751274;30;20056;-48
2022/07/28 08:17:03;;;;;;;0.88;0.70;;;;;;;;;;4751722;30;20401;-50
2022/07/28 08:19:30;;;;;;;1.30;0.85;;;;;;;;;;4751859;30;20044;-50
2022/07/28 08:22:00;;;;;;;2.92;0.80;;;;;;;;;;4751483;30;20386;-49
2022/07/28 08:24:27;;;;;;;3.17;0.60;;;;;;;;;;4751731;30;20457;-51
2022/07/28 08:27:01;;;;;;;0.80;0.60;;;;;;;;;;4751526;30;20048;-51
2022/07/28 08:29:29;;;;;;;1.58;0.65;;;;;;;;;;4751356;30;20056;-47
2022/07/28 08:31:57;;;;;;;4.93;0.90;;;;;;;;;;4751508;30;20052;-49
2022/07/28 08:34:25;;;;;;;1.05;0.60;;;;;;;;;;4751387;30;20044;-48
2022/07/28 08:37:01;;;;;;;0.80;0.55;;;;;;;;;;4751532;30;20051;-51
2022/07/28 08:39:31;;;;;;;1.20;0.40;;;;;;;;;;4751565;30;20131;-51
2022/07/28 08:42:05;;;;;;;2.97;1.00;;;;;;;;;;4751363;30;20052;-51
2022/07/28 08:44:51;;;;;;;2.30;0.70;;;;;;;;;;4751318;30;20055;-48
2022/07/28 08:47:19;;;;;;;1.42;0.80;;;;;;;;;;4751299;30;20429;-53
2022/07/28 08:49:48;;;;;;;0.57;0.45;;;;;;;;;;4751373;30;20059;-49
2022/07/28 08:52:19;;;;;;;1.00;0.77;;;;;;;;;;4751200;30;20398;-47
2022/07/28 08:54:48;;;;;;;2.35;0.80;;;;;;;;;;4751395;30;20131;-51
2022/07/28 08:57:24;;;;;;;1.30;0.98;;;;;;;;;;4751145;30;20045;-48
2022/07/28 08:59:52;;;;;;;0.40;0.40;;;;;;;;;;4751362;30;20052;-48
2022/07/28 09:02:20;;;;;;;0.50;0.50;;;;;;;;;;4751131;30;20048;-57
2022/07/28 09:04:49;;;;;;;1.45;0.65;;;;;;;;;;4751340;30;20157;-48
2022/07/28 09:07:17;;;;;;;1.30;0.60;;;;;;;;;;4751283;30;20059;-48
2022/07/28 09:09:47;;;;;;;0.88;0.68;;;;;;;;;;4750985;30;20059;-46
2022/07/28 09:12:14;;;;;;;1.63;0.80;;;;;;;;;;4751011;30;20052;-46
2022/07/28 09:14:42;;;;;;;2.45;0.55;;;;;;;;;;4751072;30;20057;-46
2022/07/28 09:17:09;;;;;;;0.73;0.60;;;;;;;;;;4751359;30;20048;-47
2022/07/28 09:19:37;;;;;;;2.00;0.70;;;;;;;;;;4751357;30;20048;-47
2022/07/28 09:22:06;;;;;;;0.80;0.70;;;;;;;;;;4750810;30;20452;-52
2022/07/28 09:24:45;;;;;;;2.35;0.60;;;;;;;;;;4751129;30;20048;-46
2022/07/28 09:27:14;;;;;;;1.38;0.70;;;;;;;;;;4754376;30;20052;-52
2022/07/28 09:29:44;;;;;;;1.23;0.63;;;;;;;;;;4754616;30;20110;-48
2022/07/28 09:32:14;;;;;;;1.67;0.60;;;;;;;;;;4754456;30;20056;-47
2022/07/28 09:34:47;;;;;;;1.25;0.80;;;;;;;;;;4754765;30;20048;-45
2022/07/28 09:37:25;;;;;;;1.55;0.65;;;;;;;;;;4754356;30;20382;-47
2022/07/28 09:39:59;;;;;;;1.05;0.68;;;;;;;;;;4754357;30;20513;-50
2022/07/28 09:42:45;;;;;;;4.07;0.73;;;;;;;;;;4754331;30;20421;-47
2022/07/28 09:45:13;;;;;;;1.00;0.70;;;;;;;;;;4754281;30;20044;-47
2022/07/28 09:48:08;;;;;;;0.77;0.45;;;;;;;;;;4754228;30;20068;-50
2022/07/28 09:50:37;;;;;;;1.45;0.65;;;;;;;;;;4754080;30;20056;-54
2022/07/28 09:53:25;;;;;;;1.02;0.60;;;;;;;;;;4754170;30;20044;-52
2022/07/28 09:55:57;;;;;;;2.45;0.60;;;;;;;;;;4753974;30;20524;-48
2022/07/28 09:58:26;;;;;;;0.88;0.55;;;;;;;;;;4753977;30;20048;-56
2022/07/28 10:01:14;;;;;;;0.63;0.50;;;;;;;;;;4754142;30;20056;-50
2022/07/28 10:03:50;;;;;;;1.08;0.70;;;;;;;;;;4754143;30;20071;-46
2022/07/28 10:06:39;;;;;;;1.08;0.50;;;;;;;;;;4753677;30;20075;-53
2022/07/28 10:09:06;;;;;;;1.23;0.43;;;;;;;;;;4753345;30;20048;-49
2022/07/28 10:11:34;;;;;;;4.55;0.60;;;;;;;;;;4753751;30;20083;-46
2022/07/28 10:14:07;;;;;;;0.82;0.50;;;;;;;;;;4753720;30;20055;-49
2022/07/28 10:16:41;;;;;;;1.02;0.60;;;;;;;;;;4753440;30;20520;-52
2022/07/28 10:19:10;;;;;;;31.63;20.02;;;;;;;;;;4753995;30;20098;-47
2022/07/28 10:21:45;;;;;;;6.05;3.70;;;;;;;;;;4753515;30;20101;-47
2022/07/28 10:24:21;;;;;;;0.93;0.60;;;;;;;;;;4753603;30;20044;-49
2022/07/28 10:26:51;;;;;;;1.52;0.75;;;;;;;;;;4753503;30;20040;-50
2022/07/28 10:29:20;;;;;;;0.63;0.50;;;;;;;;;;4753435;30;20450;-52
2022/07/28 10:31:51;;;;;;;2.38;0.70;;;;;;;;;;4753391;30;20060;-53
2022/07/28 10:34:33;;;;;;;40.22;23.23;;;;;;;;;;4753474;30;20426;-48
2022/07/28 10:37:05;;;;;;;2.05;1.10;;;;;;;;;;4753037;30;20056;-47
2022/07/28 10:39:41;;;;;;;4.45;0.70;;;;;;;;;;4753143;30;20048;-57
2022/07/28 10:42:11;;;;;;;1.08;0.90;;;;;;;;;;4753405;30;20048;-51
2022/07/28 10:44:40;;;;;;;1.10;0.70;;;;;;;;;;4753288;30;20121;-51
2022/07/28 10:47:08;;;;;;;1.38;0.85;;;;;;;;;;4753549;30;20045;-51
2022/07/28 10:49:46;;;;;;;2.00;1.40;;;;;;;;;;4753230;30;20062;-50
2022/07/28 10:52:17;;;;;;;2.25;1.25;;;;;;;;;;4753078;30;20052;-50
2022/07/28 10:55:16;;;;;;;1.15;0.80;;;;;;;;;;4753158;30;20052;-46
2022/07/28 10:58:05;;;;;;;1.85;0.77;;;;;;;;;;4766291;30;20040;-52
2022/07/28 11:00:46;;;;;;;2.47;1.10;;;;;;;;;;4753179;30;20052;-50
2022/07/28 11:03:44;;;;;;;1.27;0.77;;;;;;;;;;4753089;30;20048;-51
2022/07/28 11:06:33;;;;;;;1.55;0.90;;;;;;;;;;4753063;30;20603;-47
2022/07/28 11:09:16;;;;;;;1.88;1.20;;;;;;;;;;4752804;30;20079;-50
2022/07/28 11:11:51;;;;;;;5.55;1.02;;;;;;;;;;4752779;30;20115;-46
2022/07/28 11:14:21;;;;;;;2.30;1.20;;;;;;;;;;4752593;30;20062;-50
2022/07/28 11:17:02;;;;;;;1.70;0.90;;;;;;;;;;4752793;30;20390;-49
2022/07/28 11:19:42;;;;;;;10.70;6.53;;;;;;;;;;4752653;30;20044;-49
2022/07/28 11:22:31;;;;;;;2.95;1.45;;;;;;;;;;4752355;30;20048;-49
2022/07/28 11:25:03;;;;;;;1.13;0.80;;;;;;;;;;4752655;30;20048;-46
2022/07/28 11:27:49;;;;;;;3.22;0.70;;;;;;;;;;4752476;30;20048;-49
2022/07/28 11:30:32;;;;;;;1.85;0.95;;;;;;;;;;4752469;30;20056;-49
2022/07/28 11:33:03;;;;;;;0.63;0.57;;;;;;;;;;4752495;30;20067;-51
2022/07/28 11:35:52;;;;;;;1.50;0.80;;;;;;;;;;4752514;30;20044;-45
2022/07/28 11:38:20;;;;;;;1.52;0.80;;;;;;;;;;4752388;30;20127;-51
2022/07/28 11:40:52;;;;;;;2.50;1.67;;;;;;;;;;4752514;30;20044;-49
2022/07/28 11:43:22;;;;;;;1.90;0.98;;;;;;;;;;4752292;30;20143;-50
2022/07/28 11:46:03;;;;;;;1.00;0.70;;;;;;;;;;4752172;30;20509;-50
2022/07/28 11:48:38;;;;;;;1.42;0.73;;;;;;;;;;4751643;30;20106;-50
2022/07/28 11:51:05;;;;;;;5.68;2.58;;;;;;;;;;4755733;30;20087;-46
2022/07/28 11:53:47;;;;;;;2.03;0.90;;;;;;;;;;4769789;30;20069;-49
2022/07/28 11:56:23;;;;;;;0.85;0.70;;;;;;;;;;4769538;30;20040;-47
2022/07/28 11:58:58;;;;;;;1.15;0.70;;;;;;;;;;4769593;30;20044;-48
2022/07/28 12:01:26;;;;;;;1.35;0.85;;;;;;;;;;4769694;30;20527;-50
2022/07/28 12:03:59;;;;;;;0.93;0.40;;;;;;;;;;4769618;30;20058;-49
2022/07/28 12:06:34;;;;;;;3.65;0.60;;;;;;;;;;4762733;30;20135;-48
2022/07/28 12:09:07;;;;;;;0.47;0.25;;;;;;;;;;4751573;30;20139;-49
2022/07/28 12:11:37;;;;;;;0.82;0.40;;;;;;;;;;4751804;30;20055;-46
2022/07/28 12:14:10;;;;;;;4.30;0.70;;;;;;;;;;4751524;30;20531;-46
2022/07/28 12:16:41;;;;;;;1.83;0.22;;;;;;;;;;4751775;30;20140;-49
2022/07/28 12:19:10;;;;;;;0.68;0.35;;;;;;;;;;4751725;30;20076;-48
2022/07/28 12:21:45;;;;;;;0.35;0.30;;;;;;;;;;4751469;30;20102;-56
2022/07/28 12:24:17;;;;;;;1.52;0.30;;;;;;;;;;4750375;30;20469;-47
2022/07/28 12:26:46;;;;;;;0.50;0.30;;;;;;;;;;4751723;30;20513;-50
2022/07/28 12:29:16;;;;;;;0.20;0.20;;;;;;;;;;4751438;30;20048;-56
2022/07/28 12:32:04;;;;;;;1.95;0.20;;;;;;;;;;4751306;30;20056;-48
2022/07/28 12:34:38;;;;;;;0.20;0.20;;;;;;;;;;4751379;30;20696;-48
2022/07/28 12:37:09;;;;;;;1.42;0.63;;;;;;;;;;4751360;30;20050;-46
2022/07/28 12:39:40;;;;;;;2.35;0.93;;;;;;;;;;4751544;30;20076;-51
2022/07/28 12:42:10;;;;;;;2.33;0.80;;;;;;;;;;4751554;30;20044;-48
2022/07/28 12:44:43;;;;;;;1.50;0.80;;;;;;;;;;4751279;30;20107;-51
2022/07/28 12:47:13;;;;;;;1.52;0.70;;;;;;;;;;4751715;30;20469;-50
2022/07/28 12:49:43;;;;;;;1.33;0.88;;;;;;;;;;4751499;30;20048;-47
2022/07/28 12:52:15;;;;;;;1.92;0.75;;;;;;;;;;4759950;30;20043;-45
2022/07/28 12:54:43;;;;;;;1.55;0.80;;;;;;;;;;4769462;29;20405;-55
2022/07/28 12:57:41;;;;;;;1.13;0.80;;;;;;;;;;4768886;29;20117;-48
2022/07/28 13:00:19;;;;;;;1.00;0.73;;;;;;;;;;4773694;30;20048;-48
2022/07/28 13:02:49;;;;;;;2.00;0.70;;;;;;;;;;4774864;30;20500;-45
2022/07/28 13:08:24;;;;;;;2.58;1.00;;;;;;;;;;4757031;30;20142;-46
2022/07/28 13:10:53;;;;;;;1.10;0.70;;;;;;;;;;4756981;30;20044;-48
2022/07/28 13:13:25;;;;;;;1.75;0.90;;;;;;;;;;4756811;30;20044;-46
2022/07/28 13:16:28;;;;;;;1.20;0.77;;;;;;;;;;4756804;30;20426;-50
2022/07/28 13:19:01;;;;;;;1.30;0.80;;;;;;;;;;4737132;30;20052;-54
2022/07/28 13:21:40;;;;;;;0.75;0.50;;;;;;;;;;4754393;30;20060;-48
2022/07/28 13:24:27;;;;;;;2.15;0.52;;;;;;;;;;4756891;30;20067;-44
2022/07/28 13:26:57;;;;;;;0.60;0.20;;;;;;;;;;4757051;30;20115;-47
2022/07/28 13:29:24;;;;;;;0.95;0.30;;;;;;;;;;4756847;30;20052;-49
2022/07/28 13:31:53;;;;;;;0.50;0.40;;;;;;;;;;4756932;30;20055;-46
2022/07/28 13:34:21;;;;;;;1.40;0.40;;;;;;;;;;4756827;30;20056;-47
2022/07/28 13:36:51;;;;;;;0.32;0.32;;;;;;;;;;4756850;30;20493;-46
2022/07/28 13:39:18;;;;;;;5.07;2.83;;;;;;;;;;4756958;30;20051;-52
2022/07/28 13:41:46;;;;;;;1.38;0.82;;;;;;;;;;4756283;30;20123;-49
2022/07/28 13:44:26;;;;;;;1.10;0.30;;;;;;;;;;4756770;30;20114;-48
2022/07/28 13:46:54;;;;;;;0.30;0.30;;;;;;;;;;4756790;30;20127;-46
2022/07/28 13:49:22;;;;;;;0.60;0.20;;;;;;;;;;4756638;30;20105;-48
2022/07/28 13:51:50;;;;;;;0.32;0.30;;;;;;;;;;4756697;30;20523;-49
2022/07/28 13:54:20;;;;;;;2.15;1.25;;;;;;;;;;4756812;30;20048;-51
2022/07/28 13:57:10;;;;;;;1.27;0.50;;;;;;;;;;4756666;30;20047;-50
2022/07/28 13:59:40;;;;;;;1.05;0.32;;;;;;;;;;4756715;30;20051;-51
2022/07/28 14:02:10;;;;;;;0.98;0.30;;;;;;;;;;4756875;30;20517;-50
2022/07/28 14:04:42;;;;;;;0.57;0.30;;;;;;;;;;4756859;30;20404;-48
2022/07/28 14:07:17;;;;;;;0.80;0.40;;;;;;;;;;4755494;30;20501;-55
2022/07/28 14:09:49;;;;;;;2.95;0.30;;;;;;;;;;4756445;30;20056;-48
2022/07/28 14:12:16;;;;;;;0.68;0.40;;;;;;;;;;4752658;30;20052;-48
2022/07/28 14:14:45;;;;;;;4.68;2.58;;;;;;;;;;4753670;30;20092;-47
2022/07/28 14:17:15;;;;;;;1.63;0.68;;;;;;;;;;4753953;30;20044;-46
2022/07/28 14:20:03;;;;;;;2.92;0.70;;;;;;;;;;4753753;30;20040;-47
2022/07/28 14:22:31;;;;;;;1.20;0.40;;;;;;;;;;4753660;30;20131;-47
2022/07/28 14:24:58;;;;;;;0.70;0.50;;;;;;;;;;4753604;30;20044;-48
2022/07/28 14:27:26;;;;;;;1.42;0.40;;;;;;;;;;4753703;30;20127;-50
2022/07/28 14:29:55;;;;;;;1.65;0.40;;;;;;;;;;4753565;30;20044;-50
2022/07/28 14:32:22;;;;;;;0.50;0.40;;;;;;;;;;4753527;30;20055;-48
2022/07/28 14:34:50;;;;;;;1.15;0.40;;;;;;;;;;4753625;30;20051;-48
2022/07/28 14:37:20;;;;;;;0.50;0.30;;;;;;;;;;4753485;30;20102;-47
2022/07/28 14:39:47;;;;;;;1.10;0.40;;;;;;;;;;4753515;30;20044;-48
2022/07/28 14:42:15;;;;;;;0.50;0.40;;;;;;;;;;4752260;30;20041;-49
2022/07/28 14:44:42;;;;;;;9.07;5.05;;;;;;;;;;4753661;30;20098;-47
2022/07/28 14:47:10;;;;;;;2.60;1.52;;;;;;;;;;4753648;30;20105;-45
2022/07/28 14:49:38;;;;;;;4.13;1.48;;;;;;;;;;4753078;30;20390;-47
2022/07/28 14:52:25;;;;;;;2.35;0.68;;;;;;;;;;4753140;30;20056;-48
2022/07/28 14:54:54;;;;;;;0.30;0.30;;;;;;;;;;4753160;30;20052;-50
2022/07/28 14:57:21;;;;;;;2.05;0.68;;;;;;;;;;4753161;30;20509;-47
2022/07/28 15:00:11;;;;;;;3.92;1.23;;;;;;;;;;4752673;30;20413;-46
2022/07/28 15:02:38;;;;;;;7.30;2.92;;;;;;;;;;4753082;30;20055;-50
2022/07/28 15:05:07;;;;;;;3.40;1.58;;;;;;;;;;4752996;30;20050;-45
2022/07/28 15:07:35;;;;;;;1.52;0.57;;;;;;;;;;4752966;30;20105;-50
2022/07/28 15:10:05;;;;;;;0.98;0.50;;;;;;;;;;4752794;30;20059;-48
2022/07/28 15:12:33;;;;;;;0.20;0.20;;;;;;;;;;4752769;30;20094;-50
2022/07/28 15:15:01;;;;;;;23.15;13.85;;;;;;;;;;4752702;30;20427;-56